Pagrindinis puslapis
METAR-TAF:

METAR-TAF

Oro uostai :

Subang Jaya, Malaizija

platuma: 03-07N, ilguma: 101-32E, Aukštis: 27 m

Dabartinis oras

Ataskaita buvo paskelbta 52 minutes, ne 04:00 UTC
Vėjas 3 kt nuo kintamojo kryptimis
Temperatūra 32°C
Drėgmė 59%
Slėgis 1012 hPa
Matomumas 10 km arba daugiau
Mažai debesys ne aukštis 1900 ft

METAR: WMSA 020400Z VRB03KT 9999 FEW019 32/23 Q1012

Laikas: 12:52 (04:52 UTC)

Prognozė

Ataskaita buvo paskelbta 5 valandos ir 52 minutes, ne 23:00 UTC
Prognozė galioja nuo 02 metu 00 UTC su 03 metu 00 UTC
Vėjas 6 kt iš Vakarų/Šiaurės Vakarų
Matomumas 10 km arba daugiau
Mažai debesys ne aukštis 1700 ft, Liūtiniai kamuoliniai debesys.
Laikinai
nuo 02 metu 08 UTC su 02 metu 12 UTC
Vėjas 10 kt iš Vakarų
Matomumas: 4000 m
Mažai debesys ne aukštis 1600 ft, Liūtiniai kamuoliniai debesys.
Išsisklaidę debesys ne aukštis 1800 ft
perkūnija, lietus

TAF: WMSA 012300Z 0200/0300 30006KT 9999 FEW017CB TEMPO 0208/0212 27010KT 4000 TSRA FEW016CB SCT018

Orai ataskaitas ir orų prognozės (METAR, TAF).

turimą stotys yra geltonos ir raudonos taškus žemėlapyje.

Perkelti pele per norėdami pamatyti stoties vardą.

Tada spustelėkite, norėdami matyti oro stebėjimo ir prognozės.

Norėdami pakeisti žemėlapį: spustelėkite ant žalios mygtukų su juodo kryžiaus žemyn,; žalią mygtuką su brūkšneliu, jei norite nutolinti; arba žalių rodyklių gretimoms žemėlapius.


METAR-TAF: